createdAt,value
2022-08-30T00:04:08.257Z,9.20
2022-08-30T00:09:10.484Z,9.40
2022-08-30T00:14:12.460Z,10.82
2022-08-30T00:19:14.397Z,9.45
2022-08-30T00:24:16.374Z,11.60
2022-08-30T00:29:18.330Z,10.95
2022-08-30T00:34:20.230Z,11.52
2022-08-30T00:39:22.055Z,9.57
2022-08-30T00:44:24.222Z,9.10
2022-08-30T00:49:26.368Z,11.02
2022-08-30T00:54:30.105Z,9.60
2022-08-30T00:59:32.438Z,10.82
2022-08-30T01:04:35.645Z,10.52
2022-08-30T01:09:37.518Z,11.32
2022-08-30T01:14:39.650Z,10.13
2022-08-30T01:19:51.779Z,10.93
2022-08-30T01:24:57.683Z,13.48
2022-08-30T01:29:59.844Z,11.57
2022-08-30T01:35:01.855Z,11.93
2022-08-30T01:40:05.246Z,11.93
2022-08-30T01:45:07.945Z,13.32
2022-08-30T01:50:10.764Z,13.00
2022-08-30T01:55:12.594Z,12.40
2022-08-30T02:00:14.854Z,13.25
2022-08-30T02:05:16.774Z,11.20
2022-08-30T02:10:18.619Z,11.18
2022-08-30T02:15:20.595Z,10.93
2022-08-30T02:20:22.487Z,11.82
2022-08-30T02:25:24.283Z,12.18
2022-08-30T02:30:27.196Z,11.80
2022-08-30T02:35:29.075Z,11.80
2022-08-30T02:40:31.089Z,11.15
2022-08-30T02:45:33.373Z,12.18
2022-08-30T02:50:38.935Z,12.23
2022-08-30T02:55:40.874Z,11.07
2022-08-30T03:00:42.873Z,11.52
2022-08-30T03:05:44.720Z,12.80
2022-08-30T03:10:46.560Z,12.25
2022-08-30T03:15:50.396Z,11.60
2022-08-30T03:20:53.938Z,14.35
2022-08-30T03:25:57.392Z,11.13
2022-08-30T03:30:59.170Z,11.05
2022-08-30T03:36:01.040Z,11.27
2022-08-30T03:41:04.395Z,10.77
2022-08-30T03:46:07.773Z,11.32
2022-08-30T03:51:09.907Z,10.68
2022-08-30T03:56:11.851Z,13.05
2022-08-30T04:01:13.767Z,11.75
2022-08-30T04:06:15.699Z,11.00
2022-08-30T04:11:17.492Z,11.32
2022-08-30T04:16:20.094Z,11.90
2022-08-30T04:21:22.111Z,10.85
2022-08-30T04:26:24.083Z,10.80
2022-08-30T04:31:31.445Z,11.33
2022-08-30T04:36:33.432Z,10.55
2022-08-30T04:41:37.757Z,12.43
2022-08-30T04:46:44.617Z,11.35
2022-08-30T04:51:46.649Z,11.20
2022-08-30T04:56:48.466Z,11.55
2022-08-30T05:01:50.310Z,14.40
2022-08-30T05:06:52.907Z,11.50
2022-08-30T05:11:55.002Z,12.80
2022-08-30T05:16:56.828Z,10.73
2022-08-30T05:21:58.622Z,11.13
2022-08-30T05:27:00.458Z,10.88
2022-08-30T05:32:02.463Z,10.63
2022-08-30T05:37:04.418Z,12.98
2022-08-30T05:42:06.355Z,10.30
2022-08-30T05:47:08.131Z,11.43
2022-08-30T05:52:10.371Z,12.23
2022-08-30T05:57:12.461Z,13.73
2022-08-30T06:02:14.602Z,11.02
2022-08-30T06:07:18.009Z,10.68
2022-08-30T06:12:23.103Z,11.30
2022-08-30T06:17:24.891Z,12.43
2022-08-30T06:22:26.748Z,12.50
2022-08-30T06:27:28.531Z,13.25
2022-08-30T06:32:30.324Z,11.73
2022-08-30T06:37:33.094Z,14.80
2022-08-30T06:42:34.935Z,11.80
2022-08-30T06:47:36.740Z,11.82
2022-08-30T06:52:40.764Z,11.35
2022-08-30T06:57:43.083Z,10.32
2022-08-30T07:02:45.001Z,12.18
2022-08-30T07:07:46.862Z,12.70
2022-08-30T07:12:48.985Z,13.05
2022-08-30T07:18:09.458Z,10.95
2022-08-30T07:23:11.908Z,10.55
2022-08-30T07:28:14.779Z,11.40
2022-08-30T07:33:16.720Z,15.70
2022-08-30T07:38:18.803Z,11.02
2022-08-30T07:43:20.927Z,10.45
2022-08-30T07:48:22.844Z,10.95
2022-08-30T07:53:25.067Z,10.98
2022-08-30T07:58:26.946Z,10.80
2022-08-30T08:03:29.847Z,11.40
2022-08-30T08:08:32.818Z,9.00
2022-08-30T08:13:36.578Z,11.10
2022-08-30T08:18:54.063Z,8.93
2022-08-30T08:23:56.053Z,10.18
2022-08-30T08:28:57.839Z,10.73
2022-08-30T08:39:05.155Z,9.75
2022-08-30T08:44:15.713Z,9.38
2022-08-30T08:49:17.742Z,8.90
2022-08-30T08:54:19.498Z,9.30
2022-08-30T08:59:21.395Z,8.80
2022-08-30T09:04:30.761Z,8.32
2022-08-30T09:09:37.122Z,8.80
2022-08-30T09:14:46.026Z,8.80
2022-08-30T09:19:54.450Z,8.88
2022-08-30T09:25:23.861Z,7.57
2022-08-30T09:30:28.778Z,8.35
2022-08-30T09:35:41.663Z,8.30
2022-08-30T09:40:52.603Z,8.27
2022-08-30T09:46:00.472Z,8.05
2022-08-30T09:51:11.902Z,9.18
2022-08-30T09:56:52.362Z,8.63
2022-08-30T10:02:23.607Z,8.27
2022-08-30T10:08:04.933Z,8.10
2022-08-30T10:13:26.503Z,7.82
2022-08-30T10:18:43.238Z,8.27
2022-08-30T10:24:02.838Z,8.35
2022-08-30T10:29:19.370Z,7.60
2022-08-30T10:34:43.747Z,7.97
2022-08-30T10:39:48.901Z,7.70
2022-08-30T10:45:02.628Z,8.23
2022-08-30T10:50:14.230Z,7.50
2022-08-30T10:55:24.339Z,7.97
2022-08-30T11:00:49.850Z,7.85
2022-08-30T11:06:03.629Z,7.65
2022-08-30T11:11:30.083Z,9.40
2022-08-30T11:16:48.481Z,7.72
2022-08-30T11:21:51.551Z,10.30
2022-08-30T11:27:00.308Z,7.93
2022-08-30T11:32:14.522Z,10.20
2022-08-30T11:37:37.401Z,7.93
2022-08-30T11:42:42.725Z,7.63
2022-08-30T11:48:04.488Z,7.90
2022-08-30T11:53:36.038Z,8.68
2022-08-30T11:59:01.889Z,8.82
2022-08-30T12:04:25.779Z,8.40
2022-08-30T12:09:28.174Z,7.82
2022-08-30T12:14:51.668Z,9.40
2022-08-30T12:19:53.814Z,7.35
2022-08-30T12:24:56.059Z,7.95
2022-08-30T12:30:05.989Z,6.95
2022-08-30T12:35:08.044Z,7.70
2022-08-30T12:40:19.055Z,8.88
2022-08-30T12:45:25.560Z,9.23
2022-08-30T12:50:31.790Z,7.93
2022-08-30T12:55:49.688Z,9.85
2022-08-30T13:05:54.508Z,6.57
2022-08-30T13:11:08.504Z,6.63
2022-08-30T13:16:21.189Z,7.13
2022-08-30T13:21:25.515Z,7.93
2022-08-30T13:26:28.291Z,9.35
2022-08-30T13:31:30.689Z,8.30
2022-08-30T13:36:35.803Z,7.55
2022-08-30T13:41:39.339Z,9.93
2022-08-30T13:46:51.071Z,8.65
2022-08-30T13:52:19.082Z,7.70
2022-08-30T13:57:53.516Z,8.07
2022-08-30T14:02:45.282Z,7.90
2022-08-30T14:07:49.544Z,7.57
2022-08-30T14:12:53.170Z,9.93
2022-08-30T14:17:55.288Z,10.25
2022-08-30T14:22:57.143Z,8.77
2022-08-30T14:27:59.035Z,7.22
2022-08-30T14:33:00.827Z,7.85
2022-08-30T14:38:02.702Z,8.20
2022-08-30T14:43:04.635Z,9.25
2022-08-30T14:48:11.769Z,7.70
2022-08-30T14:53:16.867Z,9.50
2022-08-30T14:58:19.204Z,9.38
2022-08-30T15:03:21.036Z,8.95
2022-08-30T15:08:23.022Z,8.90
2022-08-30T15:13:26.404Z,9.40
2022-08-30T15:18:28.364Z,7.70
2022-08-30T15:23:30.322Z,7.80
2022-08-30T15:28:32.163Z,7.75
2022-08-30T15:33:33.984Z,8.60
2022-08-30T15:38:36.047Z,8.25
2022-08-30T15:43:40.642Z,7.40
2022-08-30T15:48:45.650Z,7.43
2022-08-30T15:53:48.588Z,7.55
2022-08-30T15:58:52.991Z,7.88
2022-08-30T16:03:55.018Z,8.45
2022-08-30T16:08:59.259Z,8.10
2022-08-30T16:14:01.075Z,8.63
2022-08-30T16:19:03.747Z,9.88
2022-08-30T16:24:07.352Z,8.10
2022-08-30T16:29:13.879Z,9.40
2022-08-30T16:34:17.722Z,8.88
2022-08-30T16:39:19.547Z,8.75
2022-08-30T16:44:22.262Z,10.43
2022-08-30T16:49:31.775Z,8.60
2022-08-30T16:54:33.688Z,8.20
2022-08-30T16:59:37.151Z,9.95
2022-08-30T17:04:39.963Z,8.65
2022-08-30T17:09:41.728Z,7.97
2022-08-30T17:14:43.664Z,7.75
2022-08-30T17:19:45.710Z,9.85
2022-08-30T17:24:47.575Z,11.15
2022-08-30T17:29:51.324Z,8.82
2022-08-30T17:34:53.501Z,9.32
2022-08-30T17:39:56.028Z,8.45
2022-08-30T17:45:01.247Z,9.02
2022-08-30T17:50:06.361Z,8.60
2022-08-30T17:55:10.552Z,13.02
2022-08-30T18:00:15.671Z,10.18
2022-08-30T18:05:17.814Z,10.27
2022-08-30T18:10:28.581Z,10.13
2022-08-30T18:15:36.168Z,9.82
2022-08-30T18:20:40.238Z,9.00
2022-08-30T18:25:42.273Z,8.70
2022-08-30T18:30:45.358Z,10.90
2022-08-30T18:35:49.015Z,10.90
2022-08-30T18:40:52.883Z,10.80
2022-08-30T18:45:54.956Z,10.00
2022-08-30T18:50:57.039Z,11.02
2022-08-30T18:55:59.458Z,8.98
2022-08-30T19:01:01.499Z,11.15
2022-08-30T19:06:07.966Z,9.05
2022-08-30T19:11:12.079Z,9.57
2022-08-30T19:16:13.918Z,9.98
2022-08-30T19:21:15.755Z,9.13
2022-08-30T19:26:19.201Z,9.77
2022-08-30T19:31:21.009Z,8.45
2022-08-30T19:36:22.852Z,8.13
2022-08-30T19:41:24.951Z,9.13
2022-08-30T19:46:26.759Z,10.77
2022-08-30T19:51:28.639Z,9.80
2022-08-30T19:56:30.699Z,8.63
2022-08-30T20:01:33.964Z,8.45
2022-08-30T20:06:36.195Z,9.25
2022-08-30T20:11:39.260Z,7.28
2022-08-30T20:16:42.276Z,8.48
2022-08-30T20:21:47.930Z,9.65
2022-08-30T20:26:51.962Z,7.63
2022-08-30T20:31:53.750Z,11.02
2022-08-30T20:36:57.588Z,9.30
2022-08-30T20:41:59.475Z,11.48
2022-08-30T20:47:01.299Z,11.23
2022-08-30T20:52:04.840Z,10.52
2022-08-30T20:57:07.105Z,8.05
2022-08-30T21:02:09.085Z,7.70
2022-08-30T21:07:12.709Z,9.98
2022-08-30T21:12:14.686Z,8.18
2022-08-30T21:17:17.879Z,8.32
2022-08-30T21:22:19.717Z,9.57
2022-08-30T21:27:22.386Z,10.35
2022-08-30T21:32:24.393Z,7.95
2022-08-30T21:37:26.603Z,7.70
2022-08-30T21:42:28.432Z,9.85
2022-08-30T21:47:31.175Z,12.23
2022-08-30T21:52:33.799Z,10.68
2022-08-30T21:57:35.652Z,8.75
2022-08-30T22:02:37.504Z,11.23
2022-08-30T22:07:39.787Z,10.88
2022-08-30T22:12:41.716Z,9.30
2022-08-30T22:17:43.887Z,11.13
2022-08-30T22:22:45.718Z,7.90
2022-08-30T22:27:47.542Z,8.70
2022-08-30T22:32:49.459Z,11.07
2022-08-30T22:37:53.778Z,7.80
2022-08-30T22:42:55.678Z,8.80
2022-08-30T22:47:58.010Z,8.93
2022-08-30T22:52:59.813Z,12.45
2022-08-30T22:58:01.623Z,7.95
2022-08-30T23:03:04.397Z,9.25
2022-08-30T23:08:07.156Z,10.57
2022-08-30T23:13:08.947Z,8.65
2022-08-30T23:18:10.759Z,8.85
2022-08-30T23:23:31.480Z,8.98
2022-08-30T23:28:51.769Z,9.57
2022-08-30T23:34:12.123Z,9.55
2022-08-30T23:39:32.587Z,8.48
2022-08-30T23:44:52.955Z,8.10
2022-08-30T23:50:13.841Z,8.98
2022-08-30T23:55:34.284Z,9.52
